sensor_id;sensor_type;location;lat;lon;timestamp;P1;durP1;ratioP1;P2;durP2;ratioP2
46447;SDS011;32145;50.390;30.778;2023-04-03T00:02:10;11.20;;;7.15;;
46447;SDS011;32145;50.390;30.778;2023-04-03T00:05:05;11.77;;;6.60;;
46447;SDS011;32145;50.390;30.778;2023-04-03T00:08:00;11.32;;;7.53;;
46447;SDS011;32145;50.390;30.778;2023-04-03T00:10:54;11.55;;;7.03;;
46447;SDS011;32145;50.390;30.778;2023-04-03T00:13:50;12.70;;;7.75;;
46447;SDS011;32145;50.390;30.778;2023-04-03T00:16:44;11.65;;;7.25;;
46447;SDS011;32145;50.390;30.778;2023-04-03T00:19:39;10.30;;;7.20;;
46447;SDS011;32145;50.390;30.778;2023-04-03T00:22:35;11.35;;;7.00;;
46447;SDS011;32145;50.390;30.778;2023-04-03T00:25:29;12.00;;;7.35;;
46447;SDS011;32145;50.390;30.778;2023-04-03T00:28:23;11.20;;;7.18;;
46447;SDS011;32145;50.390;30.778;2023-04-03T00:31:19;13.68;;;7.65;;
46447;SDS011;32145;50.390;30.778;2023-04-03T00:34:13;12.32;;;7.35;;
46447;SDS011;32145;50.390;30.778;2023-04-03T00:37:08;12.60;;;7.18;;
46447;SDS011;32145;50.390;30.778;2023-04-03T00:40:03;14.00;;;7.47;;
46447;SDS011;32145;50.390;30.778;2023-04-03T00:42:58;11.75;;;7.28;;
46447;SDS011;32145;50.390;30.778;2023-04-03T00:45:53;11.10;;;6.18;;
46447;SDS011;32145;50.390;30.778;2023-04-03T00:48:50;11.27;;;7.30;;
46447;SDS011;32145;50.390;30.778;2023-04-03T00:51:44;11.18;;;6.78;;
46447;SDS011;32145;50.390;30.778;2023-04-03T00:54:39;11.93;;;7.05;;
46447;SDS011;32145;50.390;30.778;2023-04-03T00:57:36;14.55;;;7.90;;
46447;SDS011;32145;50.390;30.778;2023-04-03T01:00:31;11.98;;;7.82;;
46447;SDS011;32145;50.390;30.778;2023-04-03T01:03:25;11.55;;;7.07;;
46447;SDS011;32145;50.390;30.778;2023-04-03T01:06:23;13.50;;;7.40;;
46447;SDS011;32145;50.390;30.778;2023-04-03T01:09:21;11.25;;;7.20;;
46447;SDS011;32145;50.390;30.778;2023-04-03T01:12:18;11.57;;;7.40;;
46447;SDS011;32145;50.390;30.778;2023-04-03T01:15:17;12.65;;;7.78;;
46447;SDS011;32145;50.390;30.778;2023-04-03T01:18:15;11.65;;;7.10;;
46447;SDS011;32145;50.390;30.778;2023-04-03T01:24:38;12.30;;;7.43;;
46447;SDS011;32145;50.390;30.778;2023-04-03T01:27:35;12.65;;;7.28;;
46447;SDS011;32145;50.390;30.778;2023-04-03T01:30:32;10.68;;;6.72;;
46447;SDS011;32145;50.390;30.778;2023-04-03T01:33:33;11.43;;;7.25;;
46447;SDS011;32145;50.390;30.778;2023-04-03T01:36:31;10.90;;;7.40;;
46447;SDS011;32145;50.390;30.778;2023-04-03T01:39:27;11.35;;;7.70;;
46447;SDS011;32145;50.390;30.778;2023-04-03T01:42:23;10.15;;;7.53;;
46447;SDS011;32145;50.390;30.778;2023-04-03T01:45:20;12.20;;;7.70;;
46447;SDS011;32145;50.390;30.778;2023-04-03T01:48:16;9.88;;;7.28;;
46447;SDS011;32145;50.390;30.778;2023-04-03T01:51:14;12.88;;;7.45;;
46447;SDS011;32145;50.390;30.778;2023-04-03T01:54:10;10.93;;;6.90;;
46447;SDS011;32145;50.390;30.778;2023-04-03T01:57:06;12.10;;;7.57;;
46447;SDS011;32145;50.390;30.778;2023-04-03T02:00:03;11.40;;;6.90;;
46447;SDS011;32145;50.390;30.778;2023-04-03T02:03:00;10.32;;;6.85;;
46447;SDS011;32145;50.390;30.778;2023-04-03T02:05:57;13.10;;;7.43;;
46447;SDS011;32145;50.390;30.778;2023-04-03T02:08:54;16.80;;;8.07;;
46447;SDS011;32145;50.390;30.778;2023-04-03T02:11:51;11.27;;;6.90;;
46447;SDS011;32145;50.390;30.778;2023-04-03T02:14:47;13.02;;;7.25;;
46447;SDS011;32145;50.390;30.778;2023-04-03T02:17:44;12.60;;;7.45;;
46447;SDS011;32145;50.390;30.778;2023-04-03T02:20:40;13.32;;;7.90;;
46447;SDS011;32145;50.390;30.778;2023-04-03T02:23:36;11.65;;;7.65;;
46447;SDS011;32145;50.390;30.778;2023-04-03T02:26:34;11.10;;;7.10;;
46447;SDS011;32145;50.390;30.778;2023-04-03T02:29:30;12.10;;;7.55;;
46447;SDS011;32145;50.390;30.778;2023-04-03T02:32:27;12.38;;;7.68;;
46447;SDS011;32145;50.390;30.778;2023-04-03T02:35:24;12.30;;;8.27;;
46447;SDS011;32145;50.390;30.778;2023-04-03T02:38:20;13.43;;;8.13;;
46447;SDS011;32145;50.390;30.778;2023-04-03T02:41:15;12.35;;;7.45;;
46447;SDS011;32145;50.390;30.778;2023-04-03T02:44:11;14.70;;;8.10;;
46447;SDS011;32145;50.390;30.778;2023-04-03T02:47:05;11.38;;;7.32;;
46447;SDS011;32145;50.390;30.778;2023-04-03T02:50:00;11.52;;;7.40;;
46447;SDS011;32145;50.390;30.778;2023-04-03T02:52:54;11.18;;;6.93;;
46447;SDS011;32145;50.390;30.778;2023-04-03T02:55:48;11.82;;;7.45;;
46447;SDS011;32145;50.390;30.778;2023-04-03T02:58:43;12.13;;;8.18;;
46447;SDS011;32145;50.390;30.778;2023-04-03T03:01:39;13.60;;;8.18;;
46447;SDS011;32145;50.390;30.778;2023-04-03T03:04:35;13.07;;;8.50;;
46447;SDS011;32145;50.390;30.778;2023-04-03T03:07:31;15.43;;;8.80;;
46447;SDS011;32145;50.390;30.778;2023-04-03T03:10:28;12.27;;;8.43;;
46447;SDS011;32145;50.390;30.778;2023-04-03T03:13:24;12.63;;;8.10;;
46447;SDS011;32145;50.390;30.778;2023-04-03T03:16:21;12.88;;;8.50;;
46447;SDS011;32145;50.390;30.778;2023-04-03T03:19:16;15.50;;;8.98;;
46447;SDS011;32145;50.390;30.778;2023-04-03T03:22:11;14.88;;;9.05;;
46447;SDS011;32145;50.390;30.778;2023-04-03T03:25:05;16.85;;;9.95;;
46447;SDS011;32145;50.390;30.778;2023-04-03T03:28:00;18.65;;;10.07;;
46447;SDS011;32145;50.390;30.778;2023-04-03T03:30:54;14.98;;;8.63;;
46447;SDS011;32145;50.390;30.778;2023-04-03T03:33:48;14.07;;;8.90;;
46447;SDS011;32145;50.390;30.778;2023-04-03T03:36:44;14.73;;;9.27;;
46447;SDS011;32145;50.390;30.778;2023-04-03T03:39:40;15.38;;;9.05;;
46447;SDS011;32145;50.390;30.778;2023-04-03T03:42:34;16.83;;;9.40;;
46447;SDS011;32145;50.390;30.778;2023-04-03T03:45:29;16.33;;;9.32;;
46447;SDS011;32145;50.390;30.778;2023-04-03T03:48:25;16.90;;;9.60;;
46447;SDS011;32145;50.390;30.778;2023-04-03T03:51:21;12.70;;;8.18;;
46447;SDS011;32145;50.390;30.778;2023-04-03T03:54:19;15.02;;;9.05;;
46447;SDS011;32145;50.390;30.778;2023-04-03T03:57:15;15.38;;;9.55;;
46447;SDS011;32145;50.390;30.778;2023-04-03T04:00:12;13.95;;;8.80;;
46447;SDS011;32145;50.390;30.778;2023-04-03T04:03:09;14.15;;;9.00;;
46447;SDS011;32145;50.390;30.778;2023-04-03T04:06:05;15.93;;;9.35;;
46447;SDS011;32145;50.390;30.778;2023-04-03T04:09:01;16.45;;;9.60;;
46447;SDS011;32145;50.390;30.778;2023-04-03T04:11:59;14.93;;;9.80;;
46447;SDS011;32145;50.390;30.778;2023-04-03T04:14:55;14.20;;;8.77;;
46447;SDS011;32145;50.390;30.778;2023-04-03T04:17:52;15.43;;;9.52;;
46447;SDS011;32145;50.390;30.778;2023-04-03T04:20:48;13.77;;;8.63;;
46447;SDS011;32145;50.390;30.778;2023-04-03T04:23:44;14.95;;;9.68;;
46447;SDS011;32145;50.390;30.778;2023-04-03T04:26:40;15.88;;;10.10;;
46447;SDS011;32145;50.390;30.778;2023-04-03T04:29:38;15.50;;;9.02;;
46447;SDS011;32145;50.390;30.778;2023-04-03T04:32:35;15.75;;;9.02;;
46447;SDS011;32145;50.390;30.778;2023-04-03T04:35:31;13.68;;;8.00;;
46447;SDS011;32145;50.390;30.778;2023-04-03T04:38:27;16.33;;;9.38;;
46447;SDS011;32145;50.390;30.778;2023-04-03T04:41:24;14.98;;;9.52;;
46447;SDS011;32145;50.390;30.778;2023-04-03T04:44:20;15.30;;;9.55;;
46447;SDS011;32145;50.390;30.778;2023-04-03T04:47:18;15.18;;;9.63;;
46447;SDS011;32145;50.390;30.778;2023-04-03T04:50:14;13.65;;;9.10;;
46447;SDS011;32145;50.390;30.778;2023-04-03T04:53:10;15.63;;;9.57;;
46447;SDS011;32145;50.390;30.778;2023-04-03T04:56:07;15.43;;;10.18;;
46447;SDS011;32145;50.390;30.778;2023-04-03T04:59:03;14.10;;;9.13;;
46447;SDS011;32145;50.390;30.778;2023-04-03T05:01:59;15.98;;;9.63;;
46447;SDS011;32145;50.390;30.778;2023-04-03T05:04:57;17.70;;;10.63;;
46447;SDS011;32145;50.390;30.778;2023-04-03T05:07:53;15.55;;;10.30;;
46447;SDS011;32145;50.390;30.778;2023-04-03T05:10:49;15.90;;;9.65;;
46447;SDS011;32145;50.390;30.778;2023-04-03T05:13:45;15.75;;;9.15;;
46447;SDS011;32145;50.390;30.778;2023-04-03T05:16:42;15.50;;;9.40;;
46447;SDS011;32145;50.390;30.778;2023-04-03T05:19:38;13.77;;;9.00;;
46447;SDS011;32145;50.390;30.778;2023-04-03T05:22:36;14.65;;;8.98;;
46447;SDS011;32145;50.390;30.778;2023-04-03T05:25:32;15.32;;;9.40;;
46447;SDS011;32145;50.390;30.778;2023-04-03T05:28:28;14.75;;;9.43;;
46447;SDS011;32145;50.390;30.778;2023-04-03T05:31:25;13.73;;;9.23;;
46447;SDS011;32145;50.390;30.778;2023-04-03T05:34:21;14.52;;;9.13;;
46447;SDS011;32145;50.390;30.778;2023-04-03T05:37:18;14.05;;;10.38;;
46447;SDS011;32145;50.390;30.778;2023-04-03T05:40:15;16.75;;;9.75;;
46447;SDS011;32145;50.390;30.778;2023-04-03T05:43:12;15.48;;;10.18;;
46447;SDS011;32145;50.390;30.778;2023-04-03T05:46:09;14.70;;;10.00;;
46447;SDS011;32145;50.390;30.778;2023-04-03T05:49:04;15.32;;;10.00;;
46447;SDS011;32145;50.390;30.778;2023-04-03T05:51:58;15.73;;;10.18;;
46447;SDS011;32145;50.390;30.778;2023-04-03T05:54:53;15.38;;;9.85;;
46447;SDS011;32145;50.390;30.778;2023-04-03T05:57:48;14.00;;;9.43;;
46447;SDS011;32145;50.390;30.778;2023-04-03T06:00:43;14.23;;;9.60;;
46447;SDS011;32145;50.390;30.778;2023-04-03T06:03:37;14.88;;;10.05;;
46447;SDS011;32145;50.390;30.778;2023-04-03T06:06:45;13.27;;;9.43;;
46447;SDS011;32145;50.390;30.778;2023-04-03T06:09:40;17.50;;;10.40;;
46447;SDS011;32145;50.390;30.778;2023-04-03T06:12:35;18.77;;;10.48;;
46447;SDS011;32145;50.390;30.778;2023-04-03T06:15:30;14.40;;;9.88;;
46447;SDS011;32145;50.390;30.778;2023-04-03T06:18:25;15.15;;;9.68;;
46447;SDS011;32145;50.390;30.778;2023-04-03T06:21:19;13.77;;;9.50;;
46447;SDS011;32145;50.390;30.778;2023-04-03T06:24:14;13.95;;;9.05;;
46447;SDS011;32145;50.390;30.778;2023-04-03T06:27:10;12.68;;;8.55;;
46447;SDS011;32145;50.390;30.778;2023-04-03T06:30:07;16.55;;;9.80;;
46447;SDS011;32145;50.390;30.778;2023-04-03T06:33:05;14.07;;;9.98;;
46447;SDS011;32145;50.390;30.778;2023-04-03T06:36:00;14.85;;;9.52;;
46447;SDS011;32145;50.390;30.778;2023-04-03T06:38:57;12.98;;;9.32;;
46447;SDS011;32145;50.390;30.778;2023-04-03T06:41:51;13.65;;;9.45;;
46447;SDS011;32145;50.390;30.778;2023-04-03T06:44:48;13.07;;;9.10;;
46447;SDS011;32145;50.390;30.778;2023-04-03T06:47:44;13.05;;;8.13;;
46447;SDS011;32145;50.390;30.778;2023-04-03T06:50:42;14.25;;;9.07;;
46447;SDS011;32145;50.390;30.778;2023-04-03T06:53:38;10.55;;;8.02;;
46447;SDS011;32145;50.390;30.778;2023-04-03T06:56:34;13.85;;;9.13;;
46447;SDS011;32145;50.390;30.778;2023-04-03T06:59:31;13.98;;;8.60;;
46447;SDS011;32145;50.390;30.778;2023-04-03T07:02:27;14.45;;;9.50;;
46447;SDS011;32145;50.390;30.778;2023-04-03T07:05:24;13.45;;;9.38;;
46447;SDS011;32145;50.390;30.778;2023-04-03T07:08:20;12.48;;;8.38;;
46447;SDS011;32145;50.390;30.778;2023-04-03T07:11:14;15.20;;;10.07;;
46447;SDS011;32145;50.390;30.778;2023-04-03T07:14:09;16.20;;;10.02;;
46447;SDS011;32145;50.390;30.778;2023-04-03T07:17:03;13.57;;;9.88;;
46447;SDS011;32145;50.390;30.778;2023-04-03T07:19:59;14.27;;;9.48;;
46447;SDS011;32145;50.390;30.778;2023-04-03T07:22:56;14.32;;;9.52;;
46447;SDS011;32145;50.390;30.778;2023-04-03T07:25:53;13.98;;;9.32;;
46447;SDS011;32145;50.390;30.778;2023-04-03T07:28:50;12.07;;;7.85;;
46447;SDS011;32145;50.390;30.778;2023-04-03T07:31:46;14.80;;;9.18;;
46447;SDS011;32145;50.390;30.778;2023-04-03T07:34:43;13.75;;;9.07;;
46447;SDS011;32145;50.390;30.778;2023-04-03T07:37:40;13.32;;;9.30;;
46447;SDS011;32145;50.390;30.778;2023-04-03T07:40:36;14.30;;;9.63;;
46447;SDS011;32145;50.390;30.778;2023-04-03T07:43:34;15.45;;;10.27;;
46447;SDS011;32145;50.390;30.778;2023-04-03T07:46:31;18.75;;;11.93;;
46447;SDS011;32145;50.390;30.778;2023-04-03T07:49:27;13.75;;;9.70;;
46447;SDS011;32145;50.390;30.778;2023-04-03T07:52:23;15.02;;;9.73;;
46447;SDS011;32145;50.390;30.778;2023-04-03T07:55:17;14.75;;;9.00;;
46447;SDS011;32145;50.390;30.778;2023-04-03T07:58:12;15.38;;;9.40;;
46447;SDS011;32145;50.390;30.778;2023-04-03T08:01:10;14.18;;;9.02;;
46447;SDS011;32145;50.390;30.778;2023-04-03T08:04:04;15.10;;;10.18;;
46447;SDS011;32145;50.390;30.778;2023-04-03T08:06:58;20.33;;;11.15;;
46447;SDS011;32145;50.390;30.778;2023-04-03T08:09:52;14.52;;;9.88;;
46447;SDS011;32145;50.390;30.778;2023-04-03T08:12:49;15.10;;;9.52;;
46447;SDS011;32145;50.390;30.778;2023-04-03T08:15:45;17.38;;;10.30;;
46447;SDS011;32145;50.390;30.778;2023-04-03T08:18:43;21.02;;;12.70;;
46447;SDS011;32145;50.390;30.778;2023-04-03T08:21:39;15.63;;;10.50;;
46447;SDS011;32145;50.390;30.778;2023-04-03T08:24:36;14.25;;;9.20;;
46447;SDS011;32145;50.390;30.778;2023-04-03T08:27:32;14.88;;;9.23;;
46447;SDS011;32145;50.390;30.778;2023-04-03T08:30:28;13.45;;;9.52;;
46447;SDS011;32145;50.390;30.778;2023-04-03T08:33:24;13.32;;;9.43;;
46447;SDS011;32145;50.390;30.778;2023-04-03T08:36:21;12.55;;;8.57;;
46447;SDS011;32145;50.390;30.778;2023-04-03T08:39:16;14.68;;;8.90;;
46447;SDS011;32145;50.390;30.778;2023-04-03T08:42:14;12.82;;;8.93;;
46447;SDS011;32145;50.390;30.778;2023-04-03T08:45:13;12.45;;;9.43;;
46447;SDS011;32145;50.390;30.778;2023-04-03T08:48:14;13.48;;;8.75;;
46447;SDS011;32145;50.390;30.778;2023-04-03T08:51:13;14.82;;;9.73;;
46447;SDS011;32145;50.390;30.778;2023-04-03T08:54:14;13.10;;;9.43;;
46447;SDS011;32145;50.390;30.778;2023-04-03T08:57:24;12.82;;;9.00;;
46447;SDS011;32145;50.390;30.778;2023-04-03T09:00:25;13.15;;;8.63;;
46447;SDS011;32145;50.390;30.778;2023-04-03T09:03:23;12.77;;;9.43;;
46447;SDS011;32145;50.390;30.778;2023-04-03T09:06:20;13.52;;;9.55;;
46447;SDS011;32145;50.390;30.778;2023-04-03T09:09:24;13.95;;;8.98;;
46447;SDS011;32145;50.390;30.778;2023-04-03T09:12:27;12.57;;;8.55;;
46447;SDS011;32145;50.390;30.778;2023-04-03T09:15:33;11.38;;;8.50;;
46447;SDS011;32145;50.390;30.778;2023-04-03T09:18:30;16.17;;;8.80;;
46447;SDS011;32145;50.390;30.778;2023-04-03T09:21:34;13.43;;;8.73;;
46447;SDS011;32145;50.390;30.778;2023-04-03T09:24:34;12.75;;;8.57;;
46447;SDS011;32145;50.390;30.778;2023-04-03T09:27:32;13.30;;;9.05;;
46447;SDS011;32145;50.390;30.778;2023-04-03T09:30:28;12.45;;;8.70;;
46447;SDS011;32145;50.390;30.778;2023-04-03T09:33:25;14.38;;;8.55;;
46447;SDS011;32145;50.390;30.778;2023-04-03T09:36:39;13.20;;;8.63;;
46447;SDS011;32145;50.390;30.778;2023-04-03T09:39:49;13.93;;;8.55;;
46447;SDS011;32145;50.390;30.778;2023-04-03T09:42:45;11.30;;;8.32;;
46447;SDS011;32145;50.390;30.778;2023-04-03T09:45:39;12.48;;;8.60;;
46447;SDS011;32145;50.390;30.778;2023-04-03T09:48:33;12.65;;;8.32;;
46447;SDS011;32145;50.390;30.778;2023-04-03T09:51:30;13.45;;;8.27;;
46447;SDS011;32145;50.390;30.778;2023-04-03T09:54:31;11.13;;;8.07;;
46447;SDS011;32145;50.390;30.778;2023-04-03T09:57:33;11.00;;;7.82;;
46447;SDS011;32145;50.390;30.778;2023-04-03T10:00:30;12.52;;;8.45;;
46447;SDS011;32145;50.390;30.778;2023-04-03T10:06:26;11.05;;;7.85;;
46447;SDS011;32145;50.390;30.778;2023-04-03T10:09:25;13.57;;;7.93;;
46447;SDS011;32145;50.390;30.778;2023-04-03T10:12:21;13.13;;;8.45;;
46447;SDS011;32145;50.390;30.778;2023-04-03T10:21:13;11.48;;;8.32;;
46447;SDS011;32145;50.390;30.778;2023-04-03T10:24:23;12.50;;;8.40;;
46447;SDS011;32145;50.390;30.778;2023-04-03T10:27:24;12.35;;;8.00;;
46447;SDS011;32145;50.390;30.778;2023-04-03T10:30:32;12.00;;;8.25;;
46447;SDS011;32145;50.390;30.778;2023-04-03T10:33:36;12.15;;;7.97;;
46447;SDS011;32145;50.390;30.778;2023-04-03T10:36:42;10.60;;;8.05;;
46447;SDS011;32145;50.390;30.778;2023-04-03T10:39:44;14.05;;;7.80;;
46447;SDS011;32145;50.390;30.778;2023-04-03T10:42:44;9.50;;;7.07;;
46447;SDS011;32145;50.390;30.778;2023-04-03T10:45:48;12.63;;;8.30;;
46447;SDS011;32145;50.390;30.778;2023-04-03T10:48:53;10.23;;;7.43;;
46447;SDS011;32145;50.390;30.778;2023-04-03T10:52:00;11.57;;;8.40;;
46447;SDS011;32145;50.390;30.778;2023-04-03T10:55:01;10.88;;;8.10;;
46447;SDS011;32145;50.390;30.778;2023-04-03T10:58:05;9.55;;;7.63;;
46447;SDS011;32145;50.390;30.778;2023-04-03T11:01:06;9.85;;;7.35;;
46447;SDS011;32145;50.390;30.778;2023-04-03T11:04:04;10.70;;;7.88;;
46447;SDS011;32145;50.390;30.778;2023-04-03T11:07:02;10.25;;;6.97;;
46447;SDS011;32145;50.390;30.778;2023-04-03T11:10:02;11.10;;;7.90;;
46447;SDS011;32145;50.390;30.778;2023-04-03T11:12:59;11.18;;;8.25;;
46447;SDS011;32145;50.390;30.778;2023-04-03T11:16:00;13.20;;;7.60;;
46447;SDS011;32145;50.390;30.778;2023-04-03T11:18:58;8.90;;;7.07;;
46447;SDS011;32145;50.390;30.778;2023-04-03T11:21:57;10.32;;;7.45;;
46447;SDS011;32145;50.390;30.778;2023-04-03T11:24:59;10.40;;;7.43;;
46447;SDS011;32145;50.390;30.778;2023-04-03T11:27:58;11.70;;;8.20;;
46447;SDS011;32145;50.390;30.778;2023-04-03T11:30:56;11.73;;;8.88;;
46447;SDS011;32145;50.390;30.778;2023-04-03T11:34:03;10.27;;;7.97;;
46447;SDS011;32145;50.390;30.778;2023-04-03T11:37:11;9.50;;;7.20;;
46447;SDS011;32145;50.390;30.778;2023-04-03T11:40:18;9.80;;;7.18;;
46447;SDS011;32145;50.390;30.778;2023-04-03T11:43:23;10.88;;;7.30;;
46447;SDS011;32145;50.390;30.778;2023-04-03T11:46:18;9.52;;;7.57;;
46447;SDS011;32145;50.390;30.778;2023-04-03T11:52:59;11.95;;;7.93;;
46447;SDS011;32145;50.390;30.778;2023-04-03T12:05:31;9.30;;;7.13;;
46447;SDS011;32145;50.390;30.778;2023-04-03T12:08:28;10.13;;;7.53;;
46447;SDS011;32145;50.390;30.778;2023-04-03T12:11:26;11.05;;;7.90;;
46447;SDS011;32145;50.390;30.778;2023-04-03T12:14:25;11.32;;;7.53;;
46447;SDS011;32145;50.390;30.778;2023-04-03T12:17:22;9.52;;;7.43;;
46447;SDS011;32145;50.390;30.778;2023-04-03T12:23:58;9.38;;;6.90;;
46447;SDS011;32145;50.390;30.778;2023-04-03T12:27:03;12.35;;;7.70;;
46447;SDS011;32145;50.390;30.778;2023-04-03T12:30:24;10.25;;;6.90;;
46447;SDS011;32145;50.390;30.778;2023-04-03T12:33:24;9.70;;;6.90;;
46447;SDS011;32145;50.390;30.778;2023-04-03T12:36:34;8.93;;;6.70;;
46447;SDS011;32145;50.390;30.778;2023-04-03T12:39:40;9.75;;;6.82;;
46447;SDS011;32145;50.390;30.778;2023-04-03T12:42:54;7.90;;;6.10;;
46447;SDS011;32145;50.390;30.778;2023-04-03T12:46:01;7.30;;;5.50;;
46447;SDS011;32145;50.390;30.778;2023-04-03T12:48:57;7.88;;;5.55;;
46447;SDS011;32145;50.390;30.778;2023-04-03T12:51:53;8.13;;;6.10;;
46447;SDS011;32145;50.390;30.778;2023-04-03T12:54:48;9.63;;;5.97;;
46447;SDS011;32145;50.390;30.778;2023-04-03T12:57:44;7.00;;;5.35;;
46447;SDS011;32145;50.390;30.778;2023-04-03T13:00:38;7.50;;;5.85;;
46447;SDS011;32145;50.390;30.778;2023-04-03T13:03:34;7.75;;;6.20;;
46447;SDS011;32145;50.390;30.778;2023-04-03T13:06:34;8.90;;;6.43;;
46447;SDS011;32145;50.390;30.778;2023-04-03T13:09:33;8.05;;;5.85;;
46447;SDS011;32145;50.390;30.778;2023-04-03T13:12:27;8.73;;;6.05;;
46447;SDS011;32145;50.390;30.778;2023-04-03T13:15:25;8.38;;;6.32;;
46447;SDS011;32145;50.390;30.778;2023-04-03T13:18:30;8.75;;;6.75;;
46447;SDS011;32145;50.390;30.778;2023-04-03T13:21:29;9.15;;;6.53;;
46447;SDS011;32145;50.390;30.778;2023-04-03T13:24:27;9.00;;;6.80;;
46447;SDS011;32145;50.390;30.778;2023-04-03T13:27:24;8.70;;;6.50;;
46447;SDS011;32145;50.390;30.778;2023-04-03T13:30:23;9.50;;;6.45;;
46447;SDS011;32145;50.390;30.778;2023-04-03T13:33:23;9.05;;;6.80;;
46447;SDS011;32145;50.390;30.778;2023-04-03T13:36:21;9.27;;;6.83;;
46447;SDS011;32145;50.390;30.778;2023-04-03T13:39:22;9.43;;;6.68;;
46447;SDS011;32145;50.390;30.778;2023-04-03T13:42:21;8.40;;;6.20;;
46447;SDS011;32145;50.390;30.778;2023-04-03T13:45:19;8.38;;;5.80;;
46447;SDS011;32145;50.390;30.778;2023-04-03T13:48:16;8.90;;;5.70;;
46447;SDS011;32145;50.390;30.778;2023-04-03T13:51:19;9.45;;;6.50;;
46447;SDS011;32145;50.390;30.778;2023-04-03T13:54:18;9.43;;;5.75;;
46447;SDS011;32145;50.390;30.778;2023-04-03T13:57:15;8.48;;;6.45;;
46447;SDS011;32145;50.390;30.778;2023-04-03T14:00:20;8.40;;;5.82;;
46447;SDS011;32145;50.390;30.778;2023-04-03T14:03:22;8.60;;;6.03;;
46447;SDS011;32145;50.390;30.778;2023-04-03T14:06:18;10.38;;;6.45;;
46447;SDS011;32145;50.390;30.778;2023-04-03T14:09:13;6.53;;;4.97;;
46447;SDS011;32145;50.390;30.778;2023-04-03T14:12:11;8.10;;;5.97;;
46447;SDS011;32145;50.390;30.778;2023-04-03T14:15:16;8.35;;;5.60;;
46447;SDS011;32145;50.390;30.778;2023-04-03T14:18:14;8.10;;;5.68;;
46447;SDS011;32145;50.390;30.778;2023-04-03T14:21:10;10.23;;;6.32;;
46447;SDS011;32145;50.390;30.778;2023-04-03T14:24:05;8.32;;;5.65;;
46447;SDS011;32145;50.390;30.778;2023-04-03T14:26:59;7.70;;;5.30;;
46447;SDS011;32145;50.390;30.778;2023-04-03T14:29:54;7.63;;;5.90;;
46447;SDS011;32145;50.390;30.778;2023-04-03T14:32:51;7.60;;;4.68;;
46447;SDS011;32145;50.390;30.778;2023-04-03T14:35:46;7.57;;;5.60;;
46447;SDS011;32145;50.390;30.778;2023-04-03T14:38:41;7.72;;;5.05;;
46447;SDS011;32145;50.390;30.778;2023-04-03T14:41:36;8.32;;;5.53;;
46447;SDS011;32145;50.390;30.778;2023-04-03T14:44:30;6.32;;;4.90;;
46447;SDS011;32145;50.390;30.778;2023-04-03T14:47:25;6.68;;;4.85;;
46447;SDS011;32145;50.390;30.778;2023-04-03T14:50:24;6.95;;;4.68;;
46447;SDS011;32145;50.390;30.778;2023-04-03T14:53:19;5.88;;;4.82;;
46447;SDS011;32145;50.390;30.778;2023-04-03T14:56:15;6.28;;;5.10;;
46447;SDS011;32145;50.390;30.778;2023-04-03T14:59:12;6.25;;;4.85;;
46447;SDS011;32145;50.390;30.778;2023-04-03T15:02:11;6.25;;;4.75;;
46447;SDS011;32145;50.390;30.778;2023-04-03T15:05:18;7.07;;;4.72;;
46447;SDS011;32145;50.390;30.778;2023-04-03T15:08:20;5.55;;;4.60;;
46447;SDS011;32145;50.390;30.778;2023-04-03T15:11:18;4.75;;;3.55;;
46447;SDS011;32145;50.390;30.778;2023-04-03T15:14:14;5.63;;;4.30;;
46447;SDS011;32145;50.390;30.778;2023-04-03T15:17:13;5.45;;;4.20;;
46447;SDS011;32145;50.390;30.778;2023-04-03T15:20:13;5.82;;;4.07;;
46447;SDS011;32145;50.390;30.778;2023-04-03T15:23:11;5.65;;;4.55;;
46447;SDS011;32145;50.390;30.778;2023-04-03T15:26:08;4.40;;;3.33;;
46447;SDS011;32145;50.390;30.778;2023-04-03T15:29:03;4.55;;;3.38;;
46447;SDS011;32145;50.390;30.778;2023-04-03T15:31:57;4.70;;;3.05;;
46447;SDS011;32145;50.390;30.778;2023-04-03T15:34:52;5.28;;;3.33;;
46447;SDS011;32145;50.390;30.778;2023-04-03T15:37:47;4.53;;;2.75;;
46447;SDS011;32145;50.390;30.778;2023-04-03T15:40:42;4.85;;;3.60;;
46447;SDS011;32145;50.390;30.778;2023-04-03T15:43:38;4.28;;;2.70;;
46447;SDS011;32145;50.390;30.778;2023-04-03T15:46:32;4.53;;;2.70;;
46447;SDS011;32145;50.390;30.778;2023-04-03T15:49:26;5.45;;;3.20;;
46447;SDS011;32145;50.390;30.778;2023-04-03T15:52:20;5.18;;;3.20;;
46447;SDS011;32145;50.390;30.778;2023-04-03T15:55:15;4.78;;;2.47;;
46447;SDS011;32145;50.390;30.778;2023-04-03T15:58:09;3.15;;;2.20;;
46447;SDS011;32145;50.390;30.778;2023-04-03T16:01:08;3.70;;;2.60;;
46447;SDS011;32145;50.390;30.778;2023-04-03T16:04:06;3.10;;;2.05;;
46447;SDS011;32145;50.390;30.778;2023-04-03T16:07:03;4.10;;;2.60;;
46447;SDS011;32145;50.390;30.778;2023-04-03T16:10:00;3.55;;;2.25;;
46447;SDS011;32145;50.390;30.778;2023-04-03T16:12:56;3.05;;;2.00;;
46447;SDS011;32145;50.390;30.778;2023-04-03T16:15:53;4.03;;;2.33;;
46447;SDS011;32145;50.390;30.778;2023-04-03T16:18:51;3.83;;;2.17;;
46447;SDS011;32145;50.390;30.778;2023-04-03T16:21:50;4.55;;;2.83;;
46447;SDS011;32145;50.390;30.778;2023-04-03T16:24:46;6.95;;;4.00;;
46447;SDS011;32145;50.390;30.778;2023-04-03T16:27:42;6.15;;;3.50;;
46447;SDS011;32145;50.390;30.778;2023-04-03T16:30:37;4.53;;;2.70;;
46447;SDS011;32145;50.390;30.778;2023-04-03T16:33:32;6.05;;;3.10;;
46447;SDS011;32145;50.390;30.778;2023-04-03T16:36:28;3.83;;;2.45;;
46447;SDS011;32145;50.390;30.778;2023-04-03T16:39:23;4.90;;;3.00;;
46447;SDS011;32145;50.390;30.778;2023-04-03T16:42:17;4.38;;;2.55;;
46447;SDS011;32145;50.390;30.778;2023-04-03T16:45:11;5.43;;;2.88;;
46447;SDS011;32145;50.390;30.778;2023-04-03T16:48:06;5.70;;;2.00;;
46447;SDS011;32145;50.390;30.778;2023-04-03T16:51:00;3.97;;;2.40;;
46447;SDS011;32145;50.390;30.778;2023-04-03T16:53:56;3.88;;;2.38;;
46447;SDS011;32145;50.390;30.778;2023-04-03T16:56:50;3.08;;;1.63;;
46447;SDS011;32145;50.390;30.778;2023-04-03T16:59:47;3.47;;;2.03;;
46447;SDS011;32145;50.390;30.778;2023-04-03T17:02:43;2.70;;;1.80;;
46447;SDS011;32145;50.390;30.778;2023-04-03T17:05:40;3.28;;;1.70;;
46447;SDS011;32145;50.390;30.778;2023-04-03T17:08:36;3.13;;;2.00;;
46447;SDS011;32145;50.390;30.778;2023-04-03T17:11:34;2.67;;;1.75;;
46447;SDS011;32145;50.390;30.778;2023-04-03T17:14:29;2.60;;;1.80;;
46447;SDS011;32145;50.390;30.778;2023-04-03T17:17:23;4.10;;;1.98;;
46447;SDS011;32145;50.390;30.778;2023-04-03T17:20:18;2.60;;;1.80;;
46447;SDS011;32145;50.390;30.778;2023-04-03T17:23:13;3.88;;;2.30;;
46447;SDS011;32145;50.390;30.778;2023-04-03T17:26:07;3.80;;;2.20;;
46447;SDS011;32145;50.390;30.778;2023-04-03T17:29:03;3.85;;;2.05;;
46447;SDS011;32145;50.390;30.778;2023-04-03T17:31:57;3.28;;;1.88;;
46447;SDS011;32145;50.390;30.778;2023-04-03T17:34:52;3.42;;;2.00;;
46447;SDS011;32145;50.390;30.778;2023-04-03T17:37:46;3.45;;;1.90;;
46447;SDS011;32145;50.390;30.778;2023-04-03T17:40:41;3.17;;;1.80;;
46447;SDS011;32145;50.390;30.778;2023-04-03T17:43:36;3.08;;;2.10;;
46447;SDS011;32145;50.390;30.778;2023-04-03T17:46:31;3.35;;;1.90;;
46447;SDS011;32145;50.390;30.778;2023-04-03T17:49:26;3.17;;;1.70;;
46447;SDS011;32145;50.390;30.778;2023-04-03T17:52:20;7.82;;;2.95;;